sensor_id;sensor_type;location;lat;lon;timestamp;pressure;altitude;pressure_sealevel;temperature;humidity
24868;BME280;12941;48.698;9.310;2024-02-14T00:00:46;98346.7;;;9.53;54.772
24868;BME280;12941;48.698;9.310;2024-02-14T00:01:51;98347.6;;;9.52;54.891
24868;BME280;12941;48.698;9.310;2024-02-14T00:02:56;98338.2;;;9.51;54.975
24868;BME280;12941;48.698;9.310;2024-02-14T00:04:01;98342.5;;;9.5;54.964
24868;BME280;12941;48.698;9.310;2024-02-14T00:05:06;98347.7;;;9.49;54.982
24868;BME280;12941;48.698;9.310;2024-02-14T00:06:06;98342.6;;;9.47;54.96
24868;BME280;12941;48.698;9.310;2024-02-14T00:07:06;98352.09999999999;;;9.45;54.978
24868;BME280;12941;48.698;9.310;2024-02-14T00:08:06;98348.8;;;9.43;55.051
24868;BME280;12941;48.698;9.310;2024-02-14T00:09:11;98353.2;;;9.41;55.167
24868;BME280;12941;48.698;9.310;2024-02-14T00:10:11;98349.8;;;9.4;55.112
24868;BME280;12941;48.698;9.310;2024-02-14T00:11:16;98348.2;;;9.38;54.98
24868;BME280;12941;48.698;9.310;2024-02-14T00:12:21;98349.90000000001;;;9.37;54.97
24868;BME280;12941;48.698;9.310;2024-02-14T00:13:26;98348.2;;;9.36;55.011
24868;BME280;12941;48.698;9.310;2024-02-14T00:14:26;98355.1;;;9.36;55.084
24868;BME280;12941;48.698;9.310;2024-02-14T00:15:31;98354.2;;;9.35;55.009
24868;BME280;12941;48.698;9.310;2024-02-14T00:16:36;98350.9;;;9.35;55.128
24868;BME280;12941;48.698;9.310;2024-02-14T00:17:41;98353.4;;;9.35;55.203
24868;BME280;12941;48.698;9.310;2024-02-14T00:18:46;98353.5;;;9.32;55.166
24868;BME280;12941;48.698;9.310;2024-02-14T00:19:51;98350.3;;;9.27;55.332
24868;BME280;12941;48.698;9.310;2024-02-14T00:20:56;98347.90000000001;;;9.25;55.48
24868;BME280;12941;48.698;9.310;2024-02-14T00:22:01;98354.7;;;9.25;55.48
24868;BME280;12941;48.698;9.310;2024-02-14T00:23:01;98355.6;;;9.24;55.5
24868;BME280;12941;48.698;9.310;2024-02-14T00:24:01;98351.4;;;9.23;55.596
24868;BME280;12941;48.698;9.310;2024-02-14T00:25:06;98353.09999999999;;;9.22;55.616
24868;BME280;12941;48.698;9.310;2024-02-14T00:26:11;98354.8;;;9.22;55.831
24868;BME280;12941;48.698;9.310;2024-02-14T00:27:11;98352.3;;;9.2;55.7
24868;BME280;12941;48.698;9.310;2024-02-14T00:28:16;98348.90000000001;;;9.2;55.807
24868;BME280;12941;48.698;9.310;2024-02-14T00:29:16;98356.6;;;9.2;55.936
24868;BME280;12941;48.698;9.310;2024-02-14T00:30:21;98355.8;;;9.18;55.965
24868;BME280;12941;48.698;9.310;2024-02-14T00:31:21;98353.3;;;9.16;56.136
24868;BME280;12941;48.698;9.310;2024-02-14T00:32:26;98351;;;9.12;56.388
24868;BME280;12941;48.698;9.310;2024-02-14T00:33:26;98355.4;;;9.08;56.533
24868;BME280;12941;48.698;9.310;2024-02-14T00:34:31;98363.09999999999;;;9.06;56.649
24868;BME280;12941;48.698;9.310;2024-02-14T00:35:31;98356.3;;;9.07;56.822
24868;BME280;12941;48.698;9.310;2024-02-14T00:36:36;98357.1;;;9.09;56.911
24868;BME280;12941;48.698;9.310;2024-02-14T00:37:36;98354.4;;;9.1;56.988
24868;BME280;12941;48.698;9.310;2024-02-14T00:38:41;98353.5;;;9.13;57.034
24868;BME280;12941;48.698;9.310;2024-02-14T00:39:41;98355.1;;;9.16;57.264
24868;BME280;12941;48.698;9.310;2024-02-14T00:40:41;98350.7;;;9.18;57.288
24868;BME280;12941;48.698;9.310;2024-02-14T00:41:46;98357.5;;;9.19;57.278
24868;BME280;12941;48.698;9.310;2024-02-14T00:42:46;98353.2;;;9.21;57.302
24868;BME280;12941;48.698;9.310;2024-02-14T00:43:51;98351.5;;;9.2;57.408
24868;BME280;12941;48.698;9.310;2024-02-14T00:44:51;98348.90000000001;;;9.2;57.569
24868;BME280;12941;48.698;9.310;2024-02-14T00:45:56;98347.29999999999;;;9.19;57.687
24868;BME280;12941;48.698;9.310;2024-02-14T00:47:01;98348.90000000001;;;9.2;57.677
24868;BME280;12941;48.698;9.310;2024-02-14T00:48:07;98343.8;;;9.2;57.816
24868;BME280;12941;48.698;9.310;2024-02-14T00:49:06;98339.5;;;9.2;57.926
24868;BME280;12941;48.698;9.310;2024-02-14T00:50:07;98346.3;;;9.21;57.83
24868;BME280;12941;48.698;9.310;2024-02-14T00:51:06;98347.1;;;9.22;57.831
24868;BME280;12941;48.698;9.310;2024-02-14T00:52:07;98349.7;;;9.22;57.756
24868;BME280;12941;48.698;9.310;2024-02-14T00:53:11;98352.3;;;9.22;57.724
24868;BME280;12941;48.698;9.310;2024-02-14T00:54:11;98352.3;;;9.2;57.84
24868;BME280;12941;48.698;9.310;2024-02-14T00:55:11;98350.5;;;9.22;57.938
24868;BME280;12941;48.698;9.310;2024-02-14T00:56:16;98357.3;;;9.23;57.822
24868;BME280;12941;48.698;9.310;2024-02-14T00:57:17;98356.4;;;9.24;57.888
24868;BME280;12941;48.698;9.310;2024-02-14T00:58:17;98356.5;;;9.23;57.789
24868;BME280;12941;48.698;9.310;2024-02-14T00:59:16;98355.7;;;9.21;57.668
24868;BME280;12941;48.698;9.310;2024-02-14T01:00:21;98359.1;;;9.21;57.69
24868;BME280;12941;48.698;9.310;2024-02-14T01:01:21;98354;;;9.2;57.688
24868;BME280;12941;48.698;9.310;2024-02-14T01:02:21;98353.2;;;9.21;57.722
24868;BME280;12941;48.698;9.310;2024-02-14T01:03:21;98359.1;;;9.21;57.83
24868;BME280;12941;48.698;9.310;2024-02-14T01:04:26;98359.2;;;9.2;57.709
24868;BME280;12941;48.698;9.310;2024-02-14T01:05:26;98364.3;;;9.2;57.784
24868;BME280;12941;48.698;9.310;2024-02-14T01:06:31;98354.2;;;9.17;57.673
24868;BME280;12941;48.698;9.310;2024-02-14T01:07:31;98362.7;;;9.16;57.618
24868;BME280;12941;48.698;9.310;2024-02-14T01:08:36;98367.1;;;9.14;57.605
24868;BME280;12941;48.698;9.310;2024-02-14T01:09:37;98362.90000000001;;;9.13;57.841
24868;BME280;12941;48.698;9.310;2024-02-14T01:10:41;98369.7;;;9.12;58.023
24868;BME280;12941;48.698;9.310;2024-02-14T01:11:46;98366.3;;;9.12;57.839
24868;BME280;12941;48.698;9.310;2024-02-14T01:12:47;98369.8;;;9.1;57.956
24868;BME280;12941;48.698;9.310;2024-02-14T01:13:51;98374;;;9.1;57.826
24868;BME280;12941;48.698;9.310;2024-02-14T01:14:57;98366.5;;;9.08;57.898
24868;BME280;12941;48.698;9.310;2024-02-14T01:15:56;98371.6;;;9.08;58.135
24868;BME280;12941;48.698;9.310;2024-02-14T01:17:01;98371.6;;;9.08;58.274
24868;BME280;12941;48.698;9.310;2024-02-14T01:18:01;98372.5;;;9.07;58.457
24868;BME280;12941;48.698;9.310;2024-02-14T01:19:06;98368.2;;;9.06;58.563
24868;BME280;12941;48.698;9.310;2024-02-14T01:20:11;98370.8;;;9.06;58.745
24868;BME280;12941;48.698;9.310;2024-02-14T01:21:16;98376;;;9.05;58.84
24868;BME280;12941;48.698;9.310;2024-02-14T01:22:17;98365.8;;;9.05;59.087
24868;BME280;12941;48.698;9.310;2024-02-14T01:23:21;98371.7;;;9.05;59.077
24868;BME280;12941;48.698;9.310;2024-02-14T01:24:27;98370.8;;;9.06;58.917
24868;BME280;12941;48.698;9.310;2024-02-14T01:25:31;98371.6;;;9.08;59.112
24868;BME280;12941;48.698;9.310;2024-02-14T01:26:36;98370.7;;;9.09;59.319
24868;BME280;12941;48.698;9.310;2024-02-14T01:27:41;98373.2;;;9.09;59.33
24868;BME280;12941;48.698;9.310;2024-02-14T01:28:41;98373.2;;;9.09;59.556
24868;BME280;12941;48.698;9.310;2024-02-14T01:29:41;98373.1;;;9.13;59.667
24868;BME280;12941;48.698;9.310;2024-02-14T01:30:46;98368.8;;;9.15;59.98
24868;BME280;12941;48.698;9.310;2024-02-14T01:31:47;98367.7;;;9.19;60.008
24868;BME280;12941;48.698;9.310;2024-02-14T01:32:51;98372;;;9.2;59.934
24868;BME280;12941;48.698;9.310;2024-02-14T01:33:56;98366.8;;;9.2;59.611
24868;BME280;12941;48.698;9.310;2024-02-14T01:34:56;98365.9;;;9.21;59.602
24868;BME280;12941;48.698;9.310;2024-02-14T01:36:01;98360.7;;;9.24;59.704
24868;BME280;12941;48.698;9.310;2024-02-14T01:37:01;98364.9;;;9.25;58.835
24868;BME280;12941;48.698;9.310;2024-02-14T01:38:07;98368.4;;;9.24;59.307
24868;BME280;12941;48.698;9.310;2024-02-14T01:39:11;98367.6;;;9.22;59.69
24868;BME280;12941;48.698;9.310;2024-02-14T01:40:17;98360.79999999999;;;9.21;59.408
24868;BME280;12941;48.698;9.310;2024-02-14T01:41:21;98359;;;9.23;59.52
24868;BME280;12941;48.698;9.310;2024-02-14T01:42:21;98356.4;;;9.24;59.155
24868;BME280;12941;48.698;9.310;2024-02-14T01:43:22;98358.90000000001;;;9.26;59.427
24868;BME280;12941;48.698;9.310;2024-02-14T01:44:27;98363.9;;;9.29;58.904
24868;BME280;12941;48.698;9.310;2024-02-14T01:45:27;98356.2;;;9.3;58.627
24868;BME280;12941;48.698;9.310;2024-02-14T01:46:27;98355.3;;;9.31;59.123
24868;BME280;12941;48.698;9.310;2024-02-14T01:47:26;98356;;;9.33;59.33
24868;BME280;12941;48.698;9.310;2024-02-14T01:48:32;98359.40000000001;;;9.35;59.171
24868;BME280;12941;48.698;9.310;2024-02-14T01:49:37;98357.6;;;9.37;59.153
24868;BME280;12941;48.698;9.310;2024-02-14T01:50:41;98351.59999999999;;;9.38;58.981
24868;BME280;12941;48.698;9.310;2024-02-14T01:51:42;98356.6;;;9.4;59.64
24868;BME280;12941;48.698;9.310;2024-02-14T01:52:47;98358.3;;;9.41;60.05
24868;BME280;12941;48.698;9.310;2024-02-14T01:53:47;98356.6;;;9.4;60.209
24868;BME280;12941;48.698;9.310;2024-02-14T01:54:51;98359.2;;;9.4;60.402
24868;BME280;12941;48.698;9.310;2024-02-14T01:55:52;98348.90000000001;;;9.41;60.126
24868;BME280;12941;48.698;9.310;2024-02-14T01:56:57;98348.8;;;9.43;59.912
24868;BME280;12941;48.698;9.310;2024-02-14T01:58:01;98336.8;;;9.43;59.988
24868;BME280;12941;48.698;9.310;2024-02-14T01:59:01;98343.6;;;9.44;59.851
24868;BME280;12941;48.698;9.310;2024-02-14T02:00:02;98345.3;;;9.44;60.053
24868;BME280;12941;48.698;9.310;2024-02-14T02:01:01;98339.3;;;9.45;60.355
24868;BME280;12941;48.698;9.310;2024-02-14T02:02:07;98342.9;;;9.41;59.727
24868;BME280;12941;48.698;9.310;2024-02-14T02:03:12;98355.1;;;9.36;59.794
24868;BME280;12941;48.698;9.310;2024-02-14T02:04:17;98348.40000000001;;;9.32;60.068
24868;BME280;12941;48.698;9.310;2024-02-14T02:05:21;98352;;;9.28;59.827
24868;BME280;12941;48.698;9.310;2024-02-14T02:06:27;98357.2;;;9.26;60.159
24868;BME280;12941;48.698;9.310;2024-02-14T02:07:27;98352.09999999999;;;9.25;60.661
24868;BME280;12941;48.698;9.310;2024-02-14T02:08:32;98350.5;;;9.24;60.82
24868;BME280;12941;48.698;9.310;2024-02-14T02:09:37;98355.6;;;9.24;61.347
24868;BME280;12941;48.698;9.310;2024-02-14T02:10:42;98342.7;;;9.25;61.51
24868;BME280;12941;48.698;9.310;2024-02-14T02:11:42;98346.1;;;9.27;61.641
24868;BME280;12941;48.698;9.310;2024-02-14T02:12:47;98348.6;;;9.29;61.74
24868;BME280;12941;48.698;9.310;2024-02-14T02:13:52;98345.1;;;9.3;62.031
24868;BME280;12941;48.698;9.310;2024-02-14T02:14:57;98345;;;9.31;62.281
24868;BME280;12941;48.698;9.310;2024-02-14T02:16:02;98345;;;9.33;62.445
24868;BME280;12941;48.698;9.310;2024-02-14T02:17:07;98346.6;;;9.34;62.616
24868;BME280;12941;48.698;9.310;2024-02-14T02:18:12;98344.1;;;9.34;62.82
24868;BME280;12941;48.698;9.310;2024-02-14T02:19:12;98351.59999999999;;;9.37;62.944
24868;BME280;12941;48.698;9.310;2024-02-14T02:20:12;98343.1;;;9.38;62.827
24868;BME280;12941;48.698;9.310;2024-02-14T02:21:17;98346.40000000001;;;9.4;63.066
24868;BME280;12941;48.698;9.310;2024-02-14T02:22:22;98341.3;;;9.4;63.313
24868;BME280;12941;48.698;9.310;2024-02-14T02:23:22;98342.1;;;9.4;62.97
24868;BME280;12941;48.698;9.310;2024-02-14T02:24:27;98343;;;9.39;62.411
24868;BME280;12941;48.698;9.310;2024-02-14T02:25:32;98352.4;;;9.39;61.862
24868;BME280;12941;48.698;9.310;2024-02-14T02:26:37;98349.90000000001;;;9.37;61.206
24868;BME280;12941;48.698;9.310;2024-02-14T02:27:37;98342.2;;;9.37;61.378
24868;BME280;12941;48.698;9.310;2024-02-14T02:28:42;98339.70000000001;;;9.36;61.557
24868;BME280;12941;48.698;9.310;2024-02-14T02:29:42;98348.29999999999;;;9.35;61.61
24868;BME280;12941;48.698;9.310;2024-02-14T02:30:47;98337.3;;;9.33;61.586
24868;BME280;12941;48.698;9.310;2024-02-14T02:31:52;98334.90000000001;;;9.3;61.559
24868;BME280;12941;48.698;9.310;2024-02-14T02:32:52;98333.2;;;9.29;62.052
24868;BME280;12941;48.698;9.310;2024-02-14T02:33:52;98328.09999999999;;;9.29;62.267
24868;BME280;12941;48.698;9.310;2024-02-14T02:34:57;98331.5;;;9.29;62.288
24868;BME280;12941;48.698;9.310;2024-02-14T02:36:02;98325.5;;;9.3;62.44
24868;BME280;12941;48.698;9.310;2024-02-14T02:37:02;98319.5;;;9.3;62.386
24868;BME280;12941;48.698;9.310;2024-02-14T02:38:02;98324.7;;;9.28;62.449
24868;BME280;12941;48.698;9.310;2024-02-14T02:39:07;98326.4;;;9.28;62.211
24868;BME280;12941;48.698;9.310;2024-02-14T02:40:07;98320.4;;;9.29;62.663
24868;BME280;12941;48.698;9.310;2024-02-14T02:41:07;98319.6;;;9.28;62.567
24868;BME280;12941;48.698;9.310;2024-02-14T02:42:12;98323.1;;;9.26;62.413
24868;BME280;12941;48.698;9.310;2024-02-14T02:43:12;98319.8;;;9.24;62.324
24868;BME280;12941;48.698;9.310;2024-02-14T02:44:12;98319;;;9.22;62.257
24868;BME280;12941;48.698;9.310;2024-02-14T02:45:12;98328.3;;;9.23;62.333
24868;BME280;12941;48.698;9.310;2024-02-14T02:46:17;98326.70000000001;;;9.22;62.407
24868;BME280;12941;48.698;9.310;2024-02-14T02:47:22;98326.70000000001;;;9.22;62.568
24868;BME280;12941;48.698;9.310;2024-02-14T02:48:22;98328.5;;;9.2;62.629
24868;BME280;12941;48.698;9.310;2024-02-14T02:49:27;98329.4;;;9.19;63.046
24868;BME280;12941;48.698;9.310;2024-02-14T02:50:27;98319.9;;;9.21;63.103
24868;BME280;12941;48.698;9.310;2024-02-14T02:51:32;98323.2;;;9.23;62.956
24868;BME280;12941;48.698;9.310;2024-02-14T02:52:32;98323.1;;;9.26;63.057
24868;BME280;12941;48.698;9.310;2024-02-14T02:53:32;98321.3;;;9.29;63.265
24868;BME280;12941;48.698;9.310;2024-02-14T02:54:32;98324.59999999999;;;9.31;62.689
24868;BME280;12941;48.698;9.310;2024-02-14T02:55:37;98315.09999999999;;;9.33;62.777
24868;BME280;12941;48.698;9.310;2024-02-14T02:56:37;98315.9;;;9.35;62.63
24868;BME280;12941;48.698;9.310;2024-02-14T02:57:42;98309.79999999999;;;9.38;62.569
24868;BME280;12941;48.698;9.310;2024-02-14T02:58:47;98311.5;;;9.39;62.464
24868;BME280;12941;48.698;9.310;2024-02-14T02:59:52;98312.2;;;9.41;62.327
24868;BME280;12941;48.698;9.310;2024-02-14T03:00:52;98304.5;;;9.42;62.383
24868;BME280;12941;48.698;9.310;2024-02-14T03:01:52;98307;;;9.44;62.406
24868;BME280;12941;48.698;9.310;2024-02-14T03:02:57;98301.8;;;9.44;61.901
24868;BME280;12941;48.698;9.310;2024-02-14T03:03:57;98306.1;;;9.45;61.902
24868;BME280;12941;48.698;9.310;2024-02-14T03:05:02;98307.8;;;9.44;61.945
24868;BME280;12941;48.698;9.310;2024-02-14T03:06:03;98305.3;;;9.43;61.813
24868;BME280;12941;48.698;9.310;2024-02-14T03:07:07;98296.7;;;9.44;61.869
24868;BME280;12941;48.698;9.310;2024-02-14T03:08:12;98290.8;;;9.43;62.191
24868;BME280;12941;48.698;9.310;2024-02-14T03:09:17;98285.7;;;9.43;62.299
24868;BME280;12941;48.698;9.310;2024-02-14T03:10:22;98284.79999999999;;;9.43;62.168
24868;BME280;12941;48.698;9.310;2024-02-14T03:11:22;98287.5;;;9.41;62.393
24868;BME280;12941;48.698;9.310;2024-02-14T03:12:27;98278.09999999999;;;9.42;62.403
24868;BME280;12941;48.698;9.310;2024-02-14T03:13:27;98282.4;;;9.41;62.339
24868;BME280;12941;48.698;9.310;2024-02-14T03:14:32;98279;;;9.41;62.392
24868;BME280;12941;48.698;9.310;2024-02-14T03:15:32;98280.7;;;9.4;62.261
24868;BME280;12941;48.698;9.310;2024-02-14T03:16:32;98273.1;;;9.39;62.313
24868;BME280;12941;48.698;9.310;2024-02-14T03:17:37;98277.3;;;9.4;62.443
24868;BME280;12941;48.698;9.310;2024-02-14T03:18:42;98273.90000000001;;;9.39;62.132
24868;BME280;12941;48.698;9.310;2024-02-14T03:19:47;98273.2;;;9.37;62.44
24868;BME280;12941;48.698;9.310;2024-02-14T03:20:52;98280.8;;;9.37;62.677
24868;BME280;12941;48.698;9.310;2024-02-14T03:21:52;98277.4;;;9.38;62.698
24868;BME280;12941;48.698;9.310;2024-02-14T03:22:57;98276.5;;;9.38;62.473
24868;BME280;12941;48.698;9.310;2024-02-14T03:23:57;98278.3;;;9.36;62.372
24868;BME280;12941;48.698;9.310;2024-02-14T03:25:02;98286.1;;;9.33;62.605
24868;BME280;12941;48.698;9.310;2024-02-14T03:26:07;98287;;;9.32;62.668
24868;BME280;12941;48.698;9.310;2024-02-14T03:27:12;98284.5;;;9.32;62.711
24868;BME280;12941;48.698;9.310;2024-02-14T03:28:17;98282.9;;;9.29;62.331
24868;BME280;12941;48.698;9.310;2024-02-14T03:29:22;98287.3;;;9.26;62.573
24868;BME280;12941;48.698;9.310;2024-02-14T03:30:22;98285.6;;;9.26;62.693
24868;BME280;12941;48.698;9.310;2024-02-14T03:31:27;98287.2;;;9.29;62.76
24868;BME280;12941;48.698;9.310;2024-02-14T03:32:27;98293;;;9.32;62.798
24868;BME280;12941;48.698;9.310;2024-02-14T03:33:32;98290.3;;;9.35;62.855
24868;BME280;12941;48.698;9.310;2024-02-14T03:34:32;98290.20000000001;;;9.37;62.912
24868;BME280;12941;48.698;9.310;2024-02-14T03:35:37;98292.7;;;9.4;62.83
24868;BME280;12941;48.698;9.310;2024-02-14T03:36:37;98307.1;;;9.41;62.649
24868;BME280;12941;48.698;9.310;2024-02-14T03:37:42;98306.1;;;9.43;62.782
24868;BME280;12941;48.698;9.310;2024-02-14T03:38:42;98312.09999999999;;;9.44;62.696
24868;BME280;12941;48.698;9.310;2024-02-14T03:39:47;98321.5;;;9.43;62.9
24868;BME280;12941;48.698;9.310;2024-02-14T03:40:52;98326.5;;;9.45;63.041
24868;BME280;12941;48.698;9.310;2024-02-14T03:41:52;98326.5;;;9.45;62.837
24868;BME280;12941;48.698;9.310;2024-02-14T03:42:57;98335;;;9.47;62.712
24868;BME280;12941;48.698;9.310;2024-02-14T03:44:02;98329.8;;;9.49;62.692
24868;BME280;12941;48.698;9.310;2024-02-14T03:45:07;98334.79999999999;;;9.5;62.759
24868;BME280;12941;48.698;9.310;2024-02-14T03:46:12;98338.2;;;9.52;62.536
24868;BME280;12941;48.698;9.310;2024-02-14T03:47:12;98339;;;9.53;62.461
24868;BME280;12941;48.698;9.310;2024-02-14T03:48:12;98340.7;;;9.52;62.45
24868;BME280;12941;48.698;9.310;2024-02-14T03:49:17;98345.8;;;9.52;62.214
24868;BME280;12941;48.698;9.310;2024-02-14T03:50:17;98339.9;;;9.52;62.246
24868;BME280;12941;48.698;9.310;2024-02-14T03:51:17;98339.8;;;9.53;62.323
24868;BME280;12941;48.698;9.310;2024-02-14T03:52:17;98343.2;;;9.55;62.336
24868;BME280;12941;48.698;9.310;2024-02-14T03:53:22;98340.59999999999;;;9.55;62.229
24868;BME280;12941;48.698;9.310;2024-02-14T03:54:27;98335.5;;;9.55;62.067
24868;BME280;12941;48.698;9.310;2024-02-14T03:55:27;98334.6;;;9.55;61.916
24868;BME280;12941;48.698;9.310;2024-02-14T03:56:27;98342.4;;;9.53;61.979
24868;BME280;12941;48.698;9.310;2024-02-14T03:57:27;98329.6;;;9.53;62.141
24868;BME280;12941;48.698;9.310;2024-02-14T03:58:32;98339.09999999999;;;9.51;62.256
24868;BME280;12941;48.698;9.310;2024-02-14T03:59:35;98334.79999999999;;;9.5;62.265
24868;BME280;12941;48.698;9.310;2024-02-14T04:00:37;98334.1;;;9.48;62.596
24868;BME280;12941;48.698;9.310;2024-02-14T04:01:43;98343.5;;;9.46;62.786
24868;BME280;12941;48.698;9.310;2024-02-14T04:02:42;98341.09999999999;;;9.43;62.974
24868;BME280;12941;48.698;9.310;2024-02-14T04:03:42;98339.5;;;9.4;63.109
24868;BME280;12941;48.698;9.310;2024-02-14T04:04:42;98345.6;;;9.38;63.225
24868;BME280;12941;48.698;9.310;2024-02-14T04:05:42;98348.90000000001;;;9.4;63.464
24868;BME280;12941;48.698;9.310;2024-02-14T04:06:47;98351.5;;;9.4;63.561
24868;BME280;12941;48.698;9.310;2024-02-14T04:07:52;98351.5;;;9.4;63.185
24868;BME280;12941;48.698;9.310;2024-02-14T04:08:52;98356.6;;;9.4;63.399
24868;BME280;12941;48.698;9.310;2024-02-14T04:09:57;98355.8;;;9.39;63.507
24868;BME280;12941;48.698;9.310;2024-02-14T04:11:02;98354.1;;;9.4;63.485
24868;BME280;12941;48.698;9.310;2024-02-14T04:12:07;98358.3;;;9.41;63.368
24868;BME280;12941;48.698;9.310;2024-02-14T04:13:13;98358.3;;;9.41;63.293
24868;BME280;12941;48.698;9.310;2024-02-14T04:14:13;98347.2;;;9.4;63.206
24868;BME280;12941;48.698;9.310;2024-02-14T04:15:17;98344.7;;;9.39;63.365
24868;BME280;12941;48.698;9.310;2024-02-14T04:16:23;98348.2;;;9.38;63.665
24868;BME280;12941;48.698;9.310;2024-02-14T04:17:27;98348.2;;;9.38;63.719
24868;BME280;12941;48.698;9.310;2024-02-14T04:18:27;98346.5;;;9.37;63.717
24868;BME280;12941;48.698;9.310;2024-02-14T04:19:33;98345.8;;;9.35;63.714
24868;BME280;12941;48.698;9.310;2024-02-14T04:20:37;98352.59999999999;;;9.34;63.659
24868;BME280;12941;48.698;9.310;2024-02-14T04:21:37;98350.09999999999;;;9.33;63.669
24868;BME280;12941;48.698;9.310;2024-02-14T04:22:43;98345.1;;;9.3;63.824
24868;BME280;12941;48.698;9.310;2024-02-14T04:23:43;98341;;;9.26;64.001
24868;BME280;12941;48.698;9.310;2024-02-14T04:24:47;98329.3;;;9.2;64.282
24868;BME280;12941;48.698;9.310;2024-02-14T04:25:54;98338;;;9.16;64.781
24868;BME280;12941;48.698;9.310;2024-02-14T04:26:57;98340.59999999999;;;9.15;64.961
24868;BME280;12941;48.698;9.310;2024-02-14T04:27:57;98335.6;;;9.12;64.956
24868;BME280;12941;48.698;9.310;2024-02-14T04:28:58;98334.90000000001;;;9.09;65.104
24868;BME280;12941;48.698;9.310;2024-02-14T04:30:03;98341.6;;;9.1;65.352
24868;BME280;12941;48.698;9.310;2024-02-14T04:31:08;98337.3;;;9.13;65.247
24868;BME280;12941;48.698;9.310;2024-02-14T04:32:13;98345.7;;;9.15;65.046
24868;BME280;12941;48.698;9.310;2024-02-14T04:33:13;98345.7;;;9.15;65.207
24868;BME280;12941;48.698;9.310;2024-02-14T04:34:17;98340.59999999999;;;9.15;65.121
24868;BME280;12941;48.698;9.310;2024-02-14T04:35:19;98335.5;;;9.15;64.8
24868;BME280;12941;48.698;9.310;2024-02-14T04:36:23;98334.5;;;9.17;64.557
24868;BME280;12941;48.698;9.310;2024-02-14T04:37:23;98344.6;;;9.2;64.572
24868;BME280;12941;48.698;9.310;2024-02-14T04:38:28;98342;;;9.22;64.103
24868;BME280;12941;48.698;9.310;2024-02-14T04:39:28;98341.09999999999;;;9.23;63.857
24868;BME280;12941;48.698;9.310;2024-02-14T04:40:28;98343.6;;;9.26;63.958
24868;BME280;12941;48.698;9.310;2024-02-14T04:41:33;98339.3;;;9.25;63.764
24868;BME280;12941;48.698;9.310;2024-02-14T04:42:33;98339.3;;;9.25;63.538
24868;BME280;12941;48.698;9.310;2024-02-14T04:43:33;98331.7;;;9.25;63.345
24868;BME280;12941;48.698;9.310;2024-02-14T04:44:33;98328.2;;;9.26;63.325
24868;BME280;12941;48.698;9.310;2024-02-14T04:45:38;98341.9;;;9.25;63.206
24868;BME280;12941;48.698;9.310;2024-02-14T04:46:38;98340.20000000001;;;9.24;63.29
24868;BME280;12941;48.698;9.310;2024-02-14T04:47:43;98338.7;;;9.2;63.541
24868;BME280;12941;48.698;9.310;2024-02-14T04:48:48;98342.3;;;9.16;63.739
24868;BME280;12941;48.698;9.310;2024-02-14T04:49:48;98341.5;;;9.15;63.782
24868;BME280;12941;48.698;9.310;2024-02-14T04:50:54;98341.5;;;9.15;63.879
24868;BME280;12941;48.698;9.310;2024-02-14T04:51:54;98344.9;;;9.14;63.866
24868;BME280;12941;48.698;9.310;2024-02-14T04:52:58;98348.40000000001;;;9.12;63.862
24868;BME280;12941;48.698;9.310;2024-02-14T04:53:58;98352.8;;;9.09;64.021
24868;BME280;12941;48.698;9.310;2024-02-14T04:54:58;98347.7;;;9.08;64.082
24868;BME280;12941;48.698;9.310;2024-02-14T04:55:58;98355.5;;;9.06;64.229
24868;BME280;12941;48.698;9.310;2024-02-14T04:56:58;98351.3;;;9.04;64.333
24868;BME280;12941;48.698;9.310;2024-02-14T04:57:58;98353;;;9.03;64.289
24868;BME280;12941;48.698;9.310;2024-02-14T04:58:58;98354.8;;;9.01;64.426
24868;BME280;12941;48.698;9.310;2024-02-14T05:00:03;98354.8;;;9.01;64.651
24868;BME280;12941;48.698;9.310;2024-02-14T05:01:03;98361.6;;;9.02;64.674
24868;BME280;12941;48.698;9.310;2024-02-14T05:02:08;98359;;;9.02;64.663
24868;BME280;12941;48.698;9.310;2024-02-14T05:03:08;98357.4;;;9.01;64.608
24868;BME280;12941;48.698;9.310;2024-02-14T05:04:08;98365.9;;;9;64.811
24868;BME280;12941;48.698;9.310;2024-02-14T05:05:09;98372.79999999999;;;8.98;64.904
24868;BME280;12941;48.698;9.310;2024-02-14T05:06:09;98373;;;8.95;64.878
24868;BME280;12941;48.698;9.310;2024-02-14T05:07:09;98377.3;;;8.93;64.832
24868;BME280;12941;48.698;9.310;2024-02-14T05:08:09;98369.7;;;8.92;64.948
24868;BME280;12941;48.698;9.310;2024-02-14T05:09:09;98372.2;;;8.93;65.229
24868;BME280;12941;48.698;9.310;2024-02-14T05:10:09;98374.7;;;8.95;65.296
24868;BME280;12941;48.698;9.310;2024-02-14T05:11:14;98367;;;8.95;65.253
24868;BME280;12941;48.698;9.310;2024-02-14T05:12:19;98370.4;;;8.95;65.231
24868;BME280;12941;48.698;9.310;2024-02-14T05:13:24;98373.90000000001;;;8.94;65.274
24868;BME280;12941;48.698;9.310;2024-02-14T05:14:25;98376.3;;;8.97;65.448
24868;BME280;12941;48.698;9.310;2024-02-14T05:15:29;98378;;;8.98;65.58
24868;BME280;12941;48.698;9.310;2024-02-14T05:16:34;98369.5;;;8.98;65.524
24868;BME280;12941;48.698;9.310;2024-02-14T05:17:41;98373.7;;;8.97;65.716
24868;BME280;12941;48.698;9.310;2024-02-14T05:18:44;98374.59999999999;;;8.98;65.825
24868;BME280;12941;48.698;9.310;2024-02-14T05:19:44;98375.40000000001;;;8.98;65.645
24868;BME280;12941;48.698;9.310;2024-02-14T05:20:49;98376.2;;;8.99;65.666
24868;BME280;12941;48.698;9.310;2024-02-14T05:21:54;98373.6;;;9;65.508
24868;BME280;12941;48.698;9.310;2024-02-14T05:22:59;98366.8;;;8.99;65.378
24868;BME280;12941;48.698;9.310;2024-02-14T05:23:59;98371.90000000001;;;8.99;65.206
24868;BME280;12941;48.698;9.310;2024-02-14T05:25:04;98367.7;;;9;65.313
24868;BME280;12941;48.698;9.310;2024-02-14T05:26:09;98365.9;;;9.02;65.349
24868;BME280;12941;48.698;9.310;2024-02-14T05:27:14;98359;;;9.04;65.394
24868;BME280;12941;48.698;9.310;2024-02-14T05:28:19;98358.1;;;9.03;65.447
24868;BME280;12941;48.698;9.310;2024-02-14T05:29:19;98367.5;;;9.04;65.652
24868;BME280;12941;48.698;9.310;2024-02-14T05:30:19;98364.9;;;9.04;65.663
24868;BME280;12941;48.698;9.310;2024-02-14T05:31:19;98365.8;;;9.03;65.759